Vernon, IL (62892)

04:49 AM CST del 23 novembre 2014 (GMT -0600)
0IL2 - Griffin Airport | Change Station
CLOSE
Current Station
Stazione meteo personale
Location: Alma, IL
Altitudine: 560 ft
Stazioni meteo nelle vicinanze

Alt. 560 ft 38.80 °N, 89.00 °W | Updated 3 seconds ago

Parzialmente nuvoloso
Parzialmente nuvoloso
50.9 °F
Sembra 50.9 °F
N
5.0
Vento Variabile Vento da SSE
Gusts 11.0 mph

Oggi
Massima -- | Minima -- °F
--% Possibilità di precip.
Ieri
Massima -- | Minima -- °F
Precip. -- in
6:47 AM 4:37 PM
Luna nuova, 1% visible
Pressione 29.82 in
Visibilità 10.0 miglia
Nuvole Sereno
Punto di rugiada 44 °F
Umidità 76%
Piovosità 0.00 in
Spessore del manto nevoso Non disponibile.
Raggi UV 0 fuori da 12
Polline 2.00 fuori da 12
Qualità dell'aria Non disponibile.
Flu Activity Non disponibile.
METAR KENL 231035Z AUTO 16011KT 10SM CLR 10/05 A2982 RMK AO2 T01030052

More Conditions Fewer Conditions

Pressione 29.82 in
Visibilità 10.0 miglia
Nuvole Sereno
Punto di rugiada 44 °F
Umidità 76%
Piovosità 0.00 in
Spessore del manto nevoso Non disponibile.
Raggi UV 0 fuori da 12
Polline 2.00 fuori da 12
Qualità dell'aria Non disponibile.
Flu Activity Non disponibile.
METAR KENL 231035Z AUTO 16011KT 10SM CLR 10/05 A2982 RMK AO2 T01030052

More Conditions Fewer Conditions

10-Day Weather Forecast

Almanac

Astronomia

Nov. 23, 2014 Alba Tramonto
Ora attuale
Crepuscolo civile
Crepuscolo nautico
Crepuscolo astronomico
Luna
Estensione della luce visibile
Lunghezza del giorno
Tomorrow will be .
, % of the Moon is Illuminated

Gli estremi di oggi

State Highs State Lows

Community

WunderPhotos

Upload Photos

1,773,033 foto caricate!

WunderBlogs® & News

Nearby

Qualità dell'aria

  Qualità dell'aria Indice AQ Inquinante
Not available.

Profondità neve

Stazione Profondità Altitudine

Attività sismica

Città  Distanza Mag. Data & Ora
Minimo Magnitudo Mostrato è 2.5.

Temperature delle acque costiere

Località Temperatura

Stazioni meteo nelle vicinanze